sensor_id;sensor_type;location;lat;lon;timestamp;temperature;humidity
19555;DHT22;9924;50.828;6.440;2023-07-08T00:00:21;19.90;99.90
19555;DHT22;9924;50.828;6.440;2023-07-08T00:02:47;19.90;99.90
19555;DHT22;9924;50.828;6.440;2023-07-08T00:05:15;19.80;99.90
19555;DHT22;9924;50.828;6.440;2023-07-08T00:07:42;19.90;99.90
19555;DHT22;9924;50.828;6.440;2023-07-08T00:10:20;19.90;99.90
19555;DHT22;9924;50.828;6.440;2023-07-08T00:12:48;20.00;99.90
19555;DHT22;9924;50.828;6.440;2023-07-08T00:15:15;20.00;99.90
19555;DHT22;9924;50.828;6.440;2023-07-08T00:17:41;19.90;99.90
19555;DHT22;9924;50.828;6.440;2023-07-08T00:20:22;19.90;99.90
19555;DHT22;9924;50.828;6.440;2023-07-08T00:22:48;20.00;99.90
19555;DHT22;9924;50.828;6.440;2023-07-08T00:25:17;19.90;99.90
19555;DHT22;9924;50.828;6.440;2023-07-08T00:27:45;19.90;99.90
19555;DHT22;9924;50.828;6.440;2023-07-08T00:30:25;19.90;99.90
19555;DHT22;9924;50.828;6.440;2023-07-08T00:32:52;19.80;99.90
19555;DHT22;9924;50.828;6.440;2023-07-08T00:35:31;19.70;99.90
19555;DHT22;9924;50.828;6.440;2023-07-08T00:37:58;19.70;99.90
19555;DHT22;9924;50.828;6.440;2023-07-08T00:40:31;19.70;99.90
19555;DHT22;9924;50.828;6.440;2023-07-08T00:43:02;19.70;99.90
19555;DHT22;9924;50.828;6.440;2023-07-08T00:45:38;19.60;99.90
19555;DHT22;9924;50.828;6.440;2023-07-08T00:48:24;19.70;99.90
19555;DHT22;9924;50.828;6.440;2023-07-08T00:50:51;19.70;99.90
19555;DHT22;9924;50.828;6.440;2023-07-08T00:53:27;19.70;99.90
19555;DHT22;9924;50.828;6.440;2023-07-08T00:56:17;19.70;99.90
19555;DHT22;9924;50.828;6.440;2023-07-08T00:59:11;19.60;99.90
19555;DHT22;9924;50.828;6.440;2023-07-08T01:01:43;19.50;99.90
19555;DHT22;9924;50.828;6.440;2023-07-08T01:04:24;19.50;99.90
19555;DHT22;9924;50.828;6.440;2023-07-08T01:06:55;19.60;99.90
19555;DHT22;9924;50.828;6.440;2023-07-08T01:09:30;19.60;99.90
19555;DHT22;9924;50.828;6.440;2023-07-08T01:12:00;19.50;99.90
19555;DHT22;9924;50.828;6.440;2023-07-08T01:14:29;19.50;99.90
19555;DHT22;9924;50.828;6.440;2023-07-08T01:16:57;19.40;99.90
19555;DHT22;9924;50.828;6.440;2023-07-08T01:19:24;19.40;99.90
19555;DHT22;9924;50.828;6.440;2023-07-08T01:22:03;19.40;99.90
19555;DHT22;9924;50.828;6.440;2023-07-08T01:24:31;19.30;99.90
19555;DHT22;9924;50.828;6.440;2023-07-08T01:26:57;19.30;99.90
19555;DHT22;9924;50.828;6.440;2023-07-08T01:29:24;19.20;99.90
19555;DHT22;9924;50.828;6.440;2023-07-08T01:31:49;19.20;99.90
19555;DHT22;9924;50.828;6.440;2023-07-08T01:34:16;19.10;99.90
19555;DHT22;9924;50.828;6.440;2023-07-08T01:36:49;19.10;99.90
19555;DHT22;9924;50.828;6.440;2023-07-08T01:39:19;19.00;99.90
19555;DHT22;9924;50.828;6.440;2023-07-08T01:41:46;19.00;99.90
19555;DHT22;9924;50.828;6.440;2023-07-08T01:44:22;19.10;99.90
19555;DHT22;9924;50.828;6.440;2023-07-08T01:46:49;19.10;99.90
19555;DHT22;9924;50.828;6.440;2023-07-08T01:49:16;19.10;99.90
19555;DHT22;9924;50.828;6.440;2023-07-08T01:51:42;19.10;99.90
19555;DHT22;9924;50.828;6.440;2023-07-08T01:54:08;19.10;99.90
19555;DHT22;9924;50.828;6.440;2023-07-08T01:56:34;19.10;99.90
19555;DHT22;9924;50.828;6.440;2023-07-08T01:58:59;19.00;99.90
19555;DHT22;9924;50.828;6.440;2023-07-08T02:01:26;18.90;99.90
19555;DHT22;9924;50.828;6.440;2023-07-08T02:03:52;18.90;99.90
19555;DHT22;9924;50.828;6.440;2023-07-08T02:06:17;18.90;99.90
19555;DHT22;9924;50.828;6.440;2023-07-08T02:08:44;19.00;99.90
19555;DHT22;9924;50.828;6.440;2023-07-08T02:11:10;19.10;99.90
19555;DHT22;9924;50.828;6.440;2023-07-08T02:13:36;19.20;99.90
19555;DHT22;9924;50.828;6.440;2023-07-08T02:16:02;19.30;99.90
19555;DHT22;9924;50.828;6.440;2023-07-08T02:18:28;19.30;99.90
19555;DHT22;9924;50.828;6.440;2023-07-08T02:20:58;19.40;99.90
19555;DHT22;9924;50.828;6.440;2023-07-08T02:23:25;19.40;99.90
19555;DHT22;9924;50.828;6.440;2023-07-08T02:25:54;19.50;99.90
19555;DHT22;9924;50.828;6.440;2023-07-08T02:28:20;19.40;99.90
19555;DHT22;9924;50.828;6.440;2023-07-08T02:30:47;19.40;99.90
19555;DHT22;9924;50.828;6.440;2023-07-08T02:33:13;19.40;99.90
19555;DHT22;9924;50.828;6.440;2023-07-08T02:35:40;19.30;99.90
19555;DHT22;9924;50.828;6.440;2023-07-08T02:38:06;19.20;99.90
19555;DHT22;9924;50.828;6.440;2023-07-08T02:40:31;19.20;99.90
19555;DHT22;9924;50.828;6.440;2023-07-08T02:42:57;19.00;99.90
19555;DHT22;9924;50.828;6.440;2023-07-08T02:45:23;19.00;99.90
19555;DHT22;9924;50.828;6.440;2023-07-08T02:47:49;18.90;99.90
19555;DHT22;9924;50.828;6.440;2023-07-08T02:50:14;18.80;99.90
19555;DHT22;9924;50.828;6.440;2023-07-08T02:52:42;18.70;99.90
19555;DHT22;9924;50.828;6.440;2023-07-08T02:55:08;18.70;99.90
19555;DHT22;9924;50.828;6.440;2023-07-08T02:57:34;18.50;99.90
19555;DHT22;9924;50.828;6.440;2023-07-08T03:00:00;18.40;99.90
19555;DHT22;9924;50.828;6.440;2023-07-08T03:02:26;18.30;99.90
19555;DHT22;9924;50.828;6.440;2023-07-08T03:04:53;18.20;99.90
19555;DHT22;9924;50.828;6.440;2023-07-08T03:07:20;18.30;99.90
19555;DHT22;9924;50.828;6.440;2023-07-08T03:09:45;18.30;99.90
19555;DHT22;9924;50.828;6.440;2023-07-08T03:12:11;18.40;99.90
19555;DHT22;9924;50.828;6.440;2023-07-08T03:14:38;18.40;99.90
19555;DHT22;9924;50.828;6.440;2023-07-08T03:17:04;18.40;99.90
19555;DHT22;9924;50.828;6.440;2023-07-08T03:19:29;18.40;99.90
19555;DHT22;9924;50.828;6.440;2023-07-08T03:21:55;18.40;99.90
19555;DHT22;9924;50.828;6.440;2023-07-08T03:24:21;18.40;99.90
19555;DHT22;9924;50.828;6.440;2023-07-08T03:26:47;18.40;99.90
19555;DHT22;9924;50.828;6.440;2023-07-08T03:29:17;18.40;99.90
19555;DHT22;9924;50.828;6.440;2023-07-08T03:31:44;18.30;99.90
19555;DHT22;9924;50.828;6.440;2023-07-08T03:34:11;18.30;99.90
19555;DHT22;9924;50.828;6.440;2023-07-08T03:36:50;18.30;99.90
19555;DHT22;9924;50.828;6.440;2023-07-08T03:39:17;18.30;99.90
19555;DHT22;9924;50.828;6.440;2023-07-08T03:41:44;18.20;99.90
19555;DHT22;9924;50.828;6.440;2023-07-08T03:44:10;18.20;99.90
19555;DHT22;9924;50.828;6.440;2023-07-08T03:46:36;18.20;99.90
19555;DHT22;9924;50.828;6.440;2023-07-08T03:49:02;18.10;99.90
19555;DHT22;9924;50.828;6.440;2023-07-08T03:51:34;18.10;99.90
19555;DHT22;9924;50.828;6.440;2023-07-08T03:54:01;18.00;99.90
19555;DHT22;9924;50.828;6.440;2023-07-08T03:56:27;18.00;99.90
19555;DHT22;9924;50.828;6.440;2023-07-08T03:58:52;17.90;99.90
19555;DHT22;9924;50.828;6.440;2023-07-08T04:01:20;17.90;99.90
19555;DHT22;9924;50.828;6.440;2023-07-08T04:03:47;17.90;99.90
19555;DHT22;9924;50.828;6.440;2023-07-08T04:06:14;17.80;99.90
19555;DHT22;9924;50.828;6.440;2023-07-08T04:08:40;17.80;99.90
19555;DHT22;9924;50.828;6.440;2023-07-08T04:11:06;17.90;99.90
19555;DHT22;9924;50.828;6.440;2023-07-08T04:13:32;17.90;99.90
19555;DHT22;9924;50.828;6.440;2023-07-08T04:16:03;17.90;99.90
19555;DHT22;9924;50.828;6.440;2023-07-08T04:18:29;18.00;99.90
19555;DHT22;9924;50.828;6.440;2023-07-08T04:20:55;18.00;99.90
19555;DHT22;9924;50.828;6.440;2023-07-08T04:23:22;18.00;99.90
19555;DHT22;9924;50.828;6.440;2023-07-08T04:25:49;18.10;99.90
19555;DHT22;9924;50.828;6.440;2023-07-08T04:28:15;18.10;99.90
19555;DHT22;9924;50.828;6.440;2023-07-08T04:30:42;18.20;99.90
19555;DHT22;9924;50.828;6.440;2023-07-08T04:33:09;18.40;99.90
19555;DHT22;9924;50.828;6.440;2023-07-08T04:35:36;18.50;99.90
19555;DHT22;9924;50.828;6.440;2023-07-08T04:38:05;18.60;99.90
19555;DHT22;9924;50.828;6.440;2023-07-08T04:40:36;18.80;99.90
19555;DHT22;9924;50.828;6.440;2023-07-08T04:43:08;18.90;99.90
19555;DHT22;9924;50.828;6.440;2023-07-08T04:45:37;19.20;99.90
19555;DHT22;9924;50.828;6.440;2023-07-08T04:48:04;19.30;99.90
19555;DHT22;9924;50.828;6.440;2023-07-08T04:50:44;19.50;99.90
19555;DHT22;9924;50.828;6.440;2023-07-08T04:53:11;19.70;99.90
19555;DHT22;9924;50.828;6.440;2023-07-08T04:55:46;19.90;99.90
19555;DHT22;9924;50.828;6.440;2023-07-08T04:58:13;20.10;99.90
19555;DHT22;9924;50.828;6.440;2023-07-08T05:00:39;20.20;99.90
19555;DHT22;9924;50.828;6.440;2023-07-08T05:03:05;20.30;99.90
19555;DHT22;9924;50.828;6.440;2023-07-08T05:05:31;20.30;99.90
19555;DHT22;9924;50.828;6.440;2023-07-08T05:07:56;20.50;99.90
19555;DHT22;9924;50.828;6.440;2023-07-08T05:10:22;20.50;99.90
19555;DHT22;9924;50.828;6.440;2023-07-08T05:12:48;20.70;99.90
19555;DHT22;9924;50.828;6.440;2023-07-08T05:15:14;20.80;99.90
19555;DHT22;9924;50.828;6.440;2023-07-08T05:17:41;20.90;99.90
19555;DHT22;9924;50.828;6.440;2023-07-08T05:20:08;21.00;99.90
19555;DHT22;9924;50.828;6.440;2023-07-08T05:22:34;21.10;99.90
19555;DHT22;9924;50.828;6.440;2023-07-08T05:25:01;21.10;99.90
19555;DHT22;9924;50.828;6.440;2023-07-08T05:27:27;21.10;99.90
19555;DHT22;9924;50.828;6.440;2023-07-08T05:29:53;21.10;99.90
19555;DHT22;9924;50.828;6.440;2023-07-08T05:32:19;20.90;99.90
19555;DHT22;9924;50.828;6.440;2023-07-08T05:34:46;20.90;99.90
19555;DHT22;9924;50.828;6.440;2023-07-08T05:37:13;20.90;99.90
19555;DHT22;9924;50.828;6.440;2023-07-08T05:39:39;20.90;99.90
19555;DHT22;9924;50.828;6.440;2023-07-08T05:42:05;20.80;99.90
19555;DHT22;9924;50.828;6.440;2023-07-08T05:44:31;20.70;99.90
19555;DHT22;9924;50.828;6.440;2023-07-08T05:46:57;20.70;99.90
19555;DHT22;9924;50.828;6.440;2023-07-08T05:49:23;20.50;99.90
19555;DHT22;9924;50.828;6.440;2023-07-08T05:51:49;20.40;99.90
19555;DHT22;9924;50.828;6.440;2023-07-08T05:54:14;20.30;99.90
19555;DHT22;9924;50.828;6.440;2023-07-08T05:56:41;20.30;99.90
19555;DHT22;9924;50.828;6.440;2023-07-08T05:59:06;20.20;99.90
19555;DHT22;9924;50.828;6.440;2023-07-08T06:01:32;20.00;99.90
19555;DHT22;9924;50.828;6.440;2023-07-08T06:03:58;19.90;99.90
19555;DHT22;9924;50.828;6.440;2023-07-08T06:06:25;19.90;99.90
19555;DHT22;9924;50.828;6.440;2023-07-08T06:08:51;19.80;99.90
19555;DHT22;9924;50.828;6.440;2023-07-08T06:11:17;19.80;99.90
19555;DHT22;9924;50.828;6.440;2023-07-08T06:13:44;19.90;99.90
19555;DHT22;9924;50.828;6.440;2023-07-08T06:16:09;19.90;99.90
19555;DHT22;9924;50.828;6.440;2023-07-08T06:18:36;20.00;99.90
19555;DHT22;9924;50.828;6.440;2023-07-08T06:21:02;20.10;99.90
19555;DHT22;9924;50.828;6.440;2023-07-08T06:23:28;20.20;99.90
19555;DHT22;9924;50.828;6.440;2023-07-08T06:25:54;20.40;99.90
19555;DHT22;9924;50.828;6.440;2023-07-08T06:28:21;20.50;99.90
19555;DHT22;9924;50.828;6.440;2023-07-08T06:30:47;20.70;99.90
19555;DHT22;9924;50.828;6.440;2023-07-08T06:33:13;21.00;99.90
19555;DHT22;9924;50.828;6.440;2023-07-08T06:35:40;21.30;99.90
19555;DHT22;9924;50.828;6.440;2023-07-08T06:38:06;21.70;99.90
19555;DHT22;9924;50.828;6.440;2023-07-08T06:40:33;22.20;99.90
19555;DHT22;9924;50.828;6.440;2023-07-08T06:42:59;22.80;99.90
19555;DHT22;9924;50.828;6.440;2023-07-08T06:45:24;23.20;99.90
19555;DHT22;9924;50.828;6.440;2023-07-08T06:47:51;23.60;99.90
19555;DHT22;9924;50.828;6.440;2023-07-08T06:50:16;23.90;99.90
19555;DHT22;9924;50.828;6.440;2023-07-08T06:52:42;24.10;99.90
19555;DHT22;9924;50.828;6.440;2023-07-08T06:55:10;24.40;99.90
19555;DHT22;9924;50.828;6.440;2023-07-08T06:57:36;24.80;99.90
19555;DHT22;9924;50.828;6.440;2023-07-08T07:00:10;25.10;99.90
19555;DHT22;9924;50.828;6.440;2023-07-08T07:02:36;25.40;99.90
19555;DHT22;9924;50.828;6.440;2023-07-08T07:05:02;25.60;99.90
19555;DHT22;9924;50.828;6.440;2023-07-08T07:07:29;25.70;99.90
19555;DHT22;9924;50.828;6.440;2023-07-08T07:09:55;25.80;99.90
19555;DHT22;9924;50.828;6.440;2023-07-08T07:12:23;25.80;99.90
19555;DHT22;9924;50.828;6.440;2023-07-08T07:14:49;26.00;99.90
19555;DHT22;9924;50.828;6.440;2023-07-08T07:17:19;26.00;99.90
19555;DHT22;9924;50.828;6.440;2023-07-08T07:19:45;26.10;99.90
19555;DHT22;9924;50.828;6.440;2023-07-08T07:22:11;26.20;99.90
19555;DHT22;9924;50.828;6.440;2023-07-08T07:24:36;26.30;99.90
19555;DHT22;9924;50.828;6.440;2023-07-08T07:27:02;26.60;99.90
19555;DHT22;9924;50.828;6.440;2023-07-08T07:29:28;26.80;99.90
19555;DHT22;9924;50.828;6.440;2023-07-08T07:32:03;26.60;99.90
19555;DHT22;9924;50.828;6.440;2023-07-08T07:34:29;26.60;99.90
19555;DHT22;9924;50.828;6.440;2023-07-08T07:36:55;26.70;99.90
19555;DHT22;9924;50.828;6.440;2023-07-08T07:39:20;26.60;99.90
19555;DHT22;9924;50.828;6.440;2023-07-08T07:41:46;26.20;99.90
19555;DHT22;9924;50.828;6.440;2023-07-08T07:44:12;26.20;99.90
19555;DHT22;9924;50.828;6.440;2023-07-08T07:46:37;26.30;99.90
19555;DHT22;9924;50.828;6.440;2023-07-08T07:49:03;26.60;99.90
19555;DHT22;9924;50.828;6.440;2023-07-08T07:51:29;26.80;99.90
19555;DHT22;9924;50.828;6.440;2023-07-08T07:53:54;26.80;99.90
19555;DHT22;9924;50.828;6.440;2023-07-08T07:56:20;26.90;99.90
19555;DHT22;9924;50.828;6.440;2023-07-08T07:58:46;27.00;99.90
19555;DHT22;9924;50.828;6.440;2023-07-08T08:01:12;27.20;99.90
19555;DHT22;9924;50.828;6.440;2023-07-08T08:03:39;27.50;99.90
19555;DHT22;9924;50.828;6.440;2023-07-08T08:06:04;27.70;99.90
19555;DHT22;9924;50.828;6.440;2023-07-08T08:08:30;28.00;99.90
19555;DHT22;9924;50.828;6.440;2023-07-08T08:10:56;28.10;99.90
19555;DHT22;9924;50.828;6.440;2023-07-08T08:13:22;28.10;99.90
19555;DHT22;9924;50.828;6.440;2023-07-08T08:15:48;28.20;99.90
19555;DHT22;9924;50.828;6.440;2023-07-08T08:18:14;28.30;99.90
19555;DHT22;9924;50.828;6.440;2023-07-08T08:20:39;28.60;99.90
19555;DHT22;9924;50.828;6.440;2023-07-08T08:23:06;28.70;99.90
19555;DHT22;9924;50.828;6.440;2023-07-08T08:25:32;28.90;99.90
19555;DHT22;9924;50.828;6.440;2023-07-08T08:27:58;29.00;99.90
19555;DHT22;9924;50.828;6.440;2023-07-08T08:30:23;29.10;99.90
19555;DHT22;9924;50.828;6.440;2023-07-08T08:32:49;29.40;99.90
19555;DHT22;9924;50.828;6.440;2023-07-08T08:35:15;29.40;99.90
19555;DHT22;9924;50.828;6.440;2023-07-08T08:37:41;29.80;99.50
19555;DHT22;9924;50.828;6.440;2023-07-08T08:40:13;29.90;98.70
19555;DHT22;9924;50.828;6.440;2023-07-08T08:42:43;30.00;97.70
19555;DHT22;9924;50.828;6.440;2023-07-08T08:45:16;29.80;97.30
19555;DHT22;9924;50.828;6.440;2023-07-08T08:47:45;29.80;98.10
19555;DHT22;9924;50.828;6.440;2023-07-08T08:52:54;29.90;98.30
19555;DHT22;9924;50.828;6.440;2023-07-08T08:55:21;29.70;98.60
19555;DHT22;9924;50.828;6.440;2023-07-08T09:00:53;29.50;99.00
19555;DHT22;9924;50.828;6.440;2023-07-08T09:06:18;30.10;97.90
19555;DHT22;9924;50.828;6.440;2023-07-08T09:08:45;30.50;97.60
19555;DHT22;9924;50.828;6.440;2023-07-08T09:11:39;30.70;96.90
19555;DHT22;9924;50.828;6.440;2023-07-08T09:14:29;31.00;96.40
19555;DHT22;9924;50.828;6.440;2023-07-08T09:17:15;31.20;96.40
19555;DHT22;9924;50.828;6.440;2023-07-08T09:20:36;31.40;96.00
19555;DHT22;9924;50.828;6.440;2023-07-08T09:22:44;31.60;94.50
19555;DHT22;9924;50.828;6.440;2023-07-08T09:27:51;31.90;94.70
19555;DHT22;9924;50.828;6.440;2023-07-08T09:30:20;32.30;93.90
19555;DHT22;9924;50.828;6.440;2023-07-08T09:32:46;32.20;94.50
19555;DHT22;9924;50.828;6.440;2023-07-08T09:35:24;32.50;93.50
19555;DHT22;9924;50.828;6.440;2023-07-08T09:37:51;32.80;93.30
19555;DHT22;9924;50.828;6.440;2023-07-08T09:40:30;32.90;92.20
19555;DHT22;9924;50.828;6.440;2023-07-08T09:43:16;33.00;92.10
19555;DHT22;9924;50.828;6.440;2023-07-08T09:45:46;33.20;91.00
19555;DHT22;9924;50.828;6.440;2023-07-08T09:48:18;33.30;91.70
19555;DHT22;9924;50.828;6.440;2023-07-08T09:50:48;33.40;91.80
19555;DHT22;9924;50.828;6.440;2023-07-08T09:53:14;33.70;91.00
19555;DHT22;9924;50.828;6.440;2023-07-08T09:55:40;33.90;89.60
19555;DHT22;9924;50.828;6.440;2023-07-08T09:58:21;34.10;88.50
19555;DHT22;9924;50.828;6.440;2023-07-08T10:00:53;34.30;90.60
19555;DHT22;9924;50.828;6.440;2023-07-08T10:03:22;34.40;88.20
19555;DHT22;9924;50.828;6.440;2023-07-08T10:05:49;34.50;87.10
19555;DHT22;9924;50.828;6.440;2023-07-08T10:08:18;34.60;84.30
19555;DHT22;9924;50.828;6.440;2023-07-08T10:10:52;34.70;85.80
19555;DHT22;9924;50.828;6.440;2023-07-08T10:13:21;34.60;84.50
19555;DHT22;9924;50.828;6.440;2023-07-08T10:15:54;34.60;84.30
19555;DHT22;9924;50.828;6.440;2023-07-08T10:18:27;34.60;84.20
19555;DHT22;9924;50.828;6.440;2023-07-08T10:21:06;34.80;81.60
19555;DHT22;9924;50.828;6.440;2023-07-08T10:23:45;34.80;84.10
19555;DHT22;9924;50.828;6.440;2023-07-08T10:26:23;34.70;80.80
19555;DHT22;9924;50.828;6.440;2023-07-08T10:29:23;35.00;79.90
19555;DHT22;9924;50.828;6.440;2023-07-08T10:32:00;35.40;83.60
19555;DHT22;9924;50.828;6.440;2023-07-08T10:34:39;35.40;76.00
19555;DHT22;9924;50.828;6.440;2023-07-08T10:37:30;35.40;76.50
19555;DHT22;9924;50.828;6.440;2023-07-08T10:46:41;35.30;76.20
19555;DHT22;9924;50.828;6.440;2023-07-08T10:57:20;35.40;78.10
19555;DHT22;9924;50.828;6.440;2023-07-08T11:00:14;35.80;73.80
19555;DHT22;9924;50.828;6.440;2023-07-08T11:05:34;35.80;73.40
19555;DHT22;9924;50.828;6.440;2023-07-08T11:08:24;35.90;73.10
19555;DHT22;9924;50.828;6.440;2023-07-08T11:13:55;36.20;74.60
19555;DHT22;9924;50.828;6.440;2023-07-08T11:16:32;36.40;69.50
19555;DHT22;9924;50.828;6.440;2023-07-08T11:19:11;36.30;70.60
19555;DHT22;9924;50.828;6.440;2023-07-08T11:21:47;36.40;69.10
19555;DHT22;9924;50.828;6.440;2023-07-08T11:24:32;36.50;72.80
19555;DHT22;9924;50.828;6.440;2023-07-08T11:27:12;36.50;69.30
19555;DHT22;9924;50.828;6.440;2023-07-08T11:30:06;36.50;68.10
19555;DHT22;9924;50.828;6.440;2023-07-08T11:32:33;36.70;67.90
19555;DHT22;9924;50.828;6.440;2023-07-08T11:35:02;36.90;69.50
19555;DHT22;9924;50.828;6.440;2023-07-08T11:37:29;37.20;65.00
19555;DHT22;9924;50.828;6.440;2023-07-08T11:42:41;37.30;66.20
19555;DHT22;9924;50.828;6.440;2023-07-08T11:45:26;37.60;67.10
19555;DHT22;9924;50.828;6.440;2023-07-08T11:47:53;37.70;66.30
19555;DHT22;9924;50.828;6.440;2023-07-08T11:50:36;37.90;67.10
19555;DHT22;9924;50.828;6.440;2023-07-08T11:53:11;37.90;63.90
19555;DHT22;9924;50.828;6.440;2023-07-08T11:58:29;38.20;67.10
19555;DHT22;9924;50.828;6.440;2023-07-08T12:09:20;38.30;61.40
19555;DHT22;9924;50.828;6.440;2023-07-08T12:11:48;38.40;61.70
19555;DHT22;9924;50.828;6.440;2023-07-08T12:14:17;38.40;60.10
19555;DHT22;9924;50.828;6.440;2023-07-08T12:16:43;38.40;58.60
19555;DHT22;9924;50.828;6.440;2023-07-08T12:19:13;38.40;59.90
19555;DHT22;9924;50.828;6.440;2023-07-08T12:21:41;38.40;58.50
19555;DHT22;9924;50.828;6.440;2023-07-08T12:24:12;38.40;58.10
19555;DHT22;9924;50.828;6.440;2023-07-08T12:26:38;38.40;60.60
19555;DHT22;9924;50.828;6.440;2023-07-08T12:29:05;38.50;59.60
19555;DHT22;9924;50.828;6.440;2023-07-08T12:31:31;38.40;58.40
19555;DHT22;9924;50.828;6.440;2023-07-08T12:33:58;38.50;58.50
19555;DHT22;9924;50.828;6.440;2023-07-08T12:36:28;38.60;58.80
19555;DHT22;9924;50.828;6.440;2023-07-08T12:38:58;38.60;57.80
19555;DHT22;9924;50.828;6.440;2023-07-08T12:41:31;38.60;59.20
19555;DHT22;9924;50.828;6.440;2023-07-08T12:43:58;38.80;57.80
19555;DHT22;9924;50.828;6.440;2023-07-08T12:46:25;39.30;56.80
19555;DHT22;9924;50.828;6.440;2023-07-08T12:48:51;39.70;57.20
19555;DHT22;9924;50.828;6.440;2023-07-08T12:51:19;40.10;56.40
19555;DHT22;9924;50.828;6.440;2023-07-08T12:53:47;40.50;56.60
19555;DHT22;9924;50.828;6.440;2023-07-08T12:56:13;40.40;56.70
19555;DHT22;9924;50.828;6.440;2023-07-08T12:58:45;40.50;55.00
19555;DHT22;9924;50.828;6.440;2023-07-08T13:01:31;39.80;54.60
19555;DHT22;9924;50.828;6.440;2023-07-08T13:04:03;39.30;55.20
19555;DHT22;9924;50.828;6.440;2023-07-08T13:06:31;39.50;57.60
19555;DHT22;9924;50.828;6.440;2023-07-08T13:09:07;39.70;55.30
19555;DHT22;9924;50.828;6.440;2023-07-08T13:11:36;38.90;54.50
19555;DHT22;9924;50.828;6.440;2023-07-08T13:14:04;38.60;55.80
19555;DHT22;9924;50.828;6.440;2023-07-08T13:16:33;38.20;55.70
19555;DHT22;9924;50.828;6.440;2023-07-08T13:19:00;38.10;59.10
19555;DHT22;9924;50.828;6.440;2023-07-08T13:21:27;38.00;57.40
19555;DHT22;9924;50.828;6.440;2023-07-08T13:23:56;38.50;58.20
19555;DHT22;9924;50.828;6.440;2023-07-08T13:26:25;39.20;58.10
19555;DHT22;9924;50.828;6.440;2023-07-08T13:29:00;39.90;55.40
19555;DHT22;9924;50.828;6.440;2023-07-08T13:31:32;39.70;54.60
19555;DHT22;9924;50.828;6.440;2023-07-08T13:34:09;38.70;56.80
19555;DHT22;9924;50.828;6.440;2023-07-08T13:36:39;37.60;58.60
19555;DHT22;9924;50.828;6.440;2023-07-08T13:39:08;36.70;57.90
19555;DHT22;9924;50.828;6.440;2023-07-08T13:41:35;36.50;60.90
19555;DHT22;9924;50.828;6.440;2023-07-08T13:44:06;37.00;60.50
19555;DHT22;9924;50.828;6.440;2023-07-08T13:49:25;36.80;58.70
19555;DHT22;9924;50.828;6.440;2023-07-08T13:52:08;36.90;60.00
19555;DHT22;9924;50.828;6.440;2023-07-08T13:54:40;36.80;58.30
19555;DHT22;9924;50.828;6.440;2023-07-08T13:57:11;36.60;59.40
19555;DHT22;9924;50.828;6.440;2023-07-08T13:59:37;36.90;59.90
19555;DHT22;9924;50.828;6.440;2023-07-08T14:02:31;37.50;58.20
19555;DHT22;9924;50.828;6.440;2023-07-08T14:04:58;38.00;60.80
19555;DHT22;9924;50.828;6.440;2023-07-08T14:07:31;38.50;56.60
19555;DHT22;9924;50.828;6.440;2023-07-08T14:09:57;38.70;57.40
19555;DHT22;9924;50.828;6.440;2023-07-08T14:12:23;39.10;55.60
19555;DHT22;9924;50.828;6.440;2023-07-08T14:14:49;38.80;56.30
19555;DHT22;9924;50.828;6.440;2023-07-08T14:17:19;38.80;55.80
19555;DHT22;9924;50.828;6.440;2023-07-08T14:19:45;38.20;56.60
19555;DHT22;9924;50.828;6.440;2023-07-08T14:24:42;37.70;56.40
19555;DHT22;9924;50.828;6.440;2023-07-08T14:27:09;37.90;58.70
19555;DHT22;9924;50.828;6.440;2023-07-08T14:29:38;37.80;57.10
19555;DHT22;9924;50.828;6.440;2023-07-08T14:32:07;38.00;56.80
19555;DHT22;9924;50.828;6.440;2023-07-08T14:34:36;38.70;57.60
19555;DHT22;9924;50.828;6.440;2023-07-08T14:37:02;39.20;55.70
19555;DHT22;9924;50.828;6.440;2023-07-08T14:39:28;39.30;56.60
19555;DHT22;9924;50.828;6.440;2023-07-08T14:41:54;39.40;55.10
19555;DHT22;9924;50.828;6.440;2023-07-08T14:46:48;38.60;55.70
19555;DHT22;9924;50.828;6.440;2023-07-08T14:49:17;37.60;57.40
19555;DHT22;9924;50.828;6.440;2023-07-08T14:51:44;36.80;57.70
19555;DHT22;9924;50.828;6.440;2023-07-08T14:54:10;36.40;59.80
19555;DHT22;9924;50.828;6.440;2023-07-08T14:56:36;36.30;59.90
19555;DHT22;9924;50.828;6.440;2023-07-08T14:59:02;36.30;59.60
19555;DHT22;9924;50.828;6.440;2023-07-08T15:01:28;36.20;61.00
19555;DHT22;9924;50.828;6.440;2023-07-08T15:03:58;36.00;61.60
19555;DHT22;9924;50.828;6.440;2023-07-08T15:06:24;35.80;62.00
19555;DHT22;9924;50.828;6.440;2023-07-08T15:08:50;35.50;61.90
19555;DHT22;9924;50.828;6.440;2023-07-08T15:11:17;35.40;63.50
19555;DHT22;9924;50.828;6.440;2023-07-08T15:13:44;35.30;66.60
19555;DHT22;9924;50.828;6.440;2023-07-08T15:16:15;35.00;63.30
19555;DHT22;9924;50.828;6.440;2023-07-08T15:18:42;34.80;65.40
19555;DHT22;9924;50.828;6.440;2023-07-08T15:21:15;34.60;67.30
19555;DHT22;9924;50.828;6.440;2023-07-08T15:23:41;34.40;67.00
19555;DHT22;9924;50.828;6.440;2023-07-08T15:26:11;34.20;67.60
19555;DHT22;9924;50.828;6.440;2023-07-08T15:28:50;34.10;68.50
19555;DHT22;9924;50.828;6.440;2023-07-08T15:31:19;34.00;69.40
19555;DHT22;9924;50.828;6.440;2023-07-08T15:33:46;34.00;70.40
19555;DHT22;9924;50.828;6.440;2023-07-08T15:36:12;33.90;69.80
19555;DHT22;9924;50.828;6.440;2023-07-08T15:38:42;33.80;70.70
19555;DHT22;9924;50.828;6.440;2023-07-08T15:41:20;33.60;70.10
19555;DHT22;9924;50.828;6.440;2023-07-08T15:43:48;33.60;70.10
19555;DHT22;9924;50.828;6.440;2023-07-08T15:46:14;33.60;69.80
19555;DHT22;9924;50.828;6.440;2023-07-08T15:48:40;33.60;72.20
19555;DHT22;9924;50.828;6.440;2023-07-08T15:51:08;33.60;71.30
19555;DHT22;9924;50.828;6.440;2023-07-08T15:53:37;33.40;72.40
19555;DHT22;9924;50.828;6.440;2023-07-08T15:56:03;33.40;73.30
19555;DHT22;9924;50.828;6.440;2023-07-08T15:58:32;33.30;73.70
19555;DHT22;9924;50.828;6.440;2023-07-08T16:00:59;33.20;75.60
19555;DHT22;9924;50.828;6.440;2023-07-08T16:03:28;33.10;76.10
19555;DHT22;9924;50.828;6.440;2023-07-08T16:05:55;33.10;75.30
19555;DHT22;9924;50.828;6.440;2023-07-08T16:08:22;33.10;79.20
19555;DHT22;9924;50.828;6.440;2023-07-08T16:10:51;33.10;77.20
19555;DHT22;9924;50.828;6.440;2023-07-08T16:13:22;32.80;66.90
19555;DHT22;9924;50.828;6.440;2023-07-08T16:15:49;32.50;63.80
19555;DHT22;9924;50.828;6.440;2023-07-08T16:18:15;32.10;65.60
19555;DHT22;9924;50.828;6.440;2023-07-08T16:20:41;31.80;62.90
19555;DHT22;9924;50.828;6.440;2023-07-08T16:23:07;31.40;66.50
19555;DHT22;9924;50.828;6.440;2023-07-08T16:25:39;31.40;76.30
19555;DHT22;9924;50.828;6.440;2023-07-08T16:28:06;31.20;70.00
19555;DHT22;9924;50.828;6.440;2023-07-08T16:30:32;30.90;64.50
19555;DHT22;9924;50.828;6.440;2023-07-08T16:32:58;30.70;62.40
19555;DHT22;9924;50.828;6.440;2023-07-08T16:35:24;30.80;64.80
19555;DHT22;9924;50.828;6.440;2023-07-08T16:37:51;31.40;65.80
19555;DHT22;9924;50.828;6.440;2023-07-08T16:40:21;32.60;64.50
19555;DHT22;9924;50.828;6.440;2023-07-08T16:42:48;34.00;61.50
19555;DHT22;9924;50.828;6.440;2023-07-08T16:45:17;35.00;62.10
19555;DHT22;9924;50.828;6.440;2023-07-08T16:47:44;35.30;62.30
19555;DHT22;9924;50.828;6.440;2023-07-08T16:50:11;35.10;61.20